createdAt,value
2022-09-30T00:00:56.282Z,94983.94
2022-09-30T00:03:24.163Z,94980.69
2022-09-30T00:06:04.360Z,94977.25
2022-09-30T00:08:34.354Z,94988.66
2022-09-30T00:11:05.591Z,94988.66
2022-09-30T00:13:32.788Z,94989.13
2022-09-30T00:15:59.951Z,94985.47
2022-09-30T00:18:27.449Z,94983.84
2022-09-30T00:20:54.242Z,94983.75
2022-09-30T00:23:21.163Z,94979.00
2022-09-30T00:25:48.267Z,94985.13
2022-09-30T00:28:15.278Z,94986.97
2022-09-30T00:30:41.795Z,94993.31
2022-09-30T00:33:08.287Z,94997.00
2022-09-30T00:35:34.772Z,95000.72
2022-09-30T00:38:01.247Z,94998.06
2022-09-30T00:40:27.871Z,94995.06
2022-09-30T00:42:54.316Z,95013.38
2022-09-30T00:45:21.709Z,95015.00
2022-09-30T00:48:07.889Z,95012.34
2022-09-30T00:50:55.611Z,94997.25
2022-09-30T00:53:29.909Z,94995.97
2022-09-30T00:56:02.222Z,94997.00
2022-09-30T00:58:31.558Z,94998.88
2022-09-30T01:00:59.579Z,94991.25
2022-09-30T01:03:26.286Z,95001.00
2022-09-30T01:05:52.827Z,94993.63
2022-09-30T01:08:20.839Z,95006.66
2022-09-30T01:10:47.317Z,95003.06
2022-09-30T01:13:15.021Z,94999.69
2022-09-30T01:15:54.860Z,94995.78
2022-09-30T01:18:36.767Z,94997.38
2022-09-30T01:21:20.432Z,94998.97
2022-09-30T01:23:47.354Z,95002.22
2022-09-30T01:26:33.262Z,95007.84
2022-09-30T01:29:17.979Z,95011.56
2022-09-30T01:32:19.824Z,95007.50
2022-09-30T01:35:01.309Z,95014.44
2022-09-30T01:37:38.654Z,95012.81
2022-09-30T01:40:12.226Z,95011.22
2022-09-30T01:42:42.903Z,95003.25
2022-09-30T01:45:09.493Z,95005.91
2022-09-30T01:48:02.429Z,95001.88
2022-09-30T01:50:38.044Z,94989.13
2022-09-30T01:53:04.649Z,94998.25
2022-09-30T01:55:34.496Z,94987.97
2022-09-30T01:58:00.954Z,94991.22
2022-09-30T02:00:28.180Z,94992.38
2022-09-30T02:02:54.632Z,94998.44
2022-09-30T02:05:25.725Z,95010.69
2022-09-30T02:07:56.076Z,95004.09
2022-09-30T02:10:27.911Z,94998.00
2022-09-30T02:13:03.414Z,94997.75
2022-09-30T02:15:39.703Z,95007.31
2022-09-30T02:18:22.337Z,95009.38
2022-09-30T02:20:50.498Z,95006.50
2022-09-30T02:23:25.784Z,95006.50
2022-09-30T02:25:56.143Z,95010.22
2022-09-30T02:28:27.180Z,95006.97
2022-09-30T02:30:56.373Z,95008.59
2022-09-30T02:33:25.432Z,95022.31
2022-09-30T02:35:59.696Z,95012.03
2022-09-30T02:38:29.642Z,95017.91
2022-09-30T02:41:04.861Z,95017.09
2022-09-30T02:43:32.106Z,95024.03
2022-09-30T02:46:10.667Z,95023.81
2022-09-30T02:48:46.693Z,95011.13
2022-09-30T02:51:21.124Z,95017.00
2022-09-30T02:54:16.301Z,95009.03
2022-09-30T02:56:50.040Z,95001.44
2022-09-30T02:59:16.584Z,95005.28
2022-09-30T03:01:43.444Z,95013.91
2022-09-30T03:04:12.471Z,95011.16
2022-09-30T03:06:39.541Z,95012.09
2022-09-30T03:09:06.161Z,95016.47
2022-09-30T03:11:32.669Z,95023.38
2022-09-30T03:14:05.257Z,95022.88
2022-09-30T03:16:40.879Z,95013.09
2022-09-30T03:19:25.907Z,95019.22
2022-09-30T03:21:52.308Z,95026.47
2022-09-30T03:24:27.812Z,95016.91
2022-09-30T03:27:04.572Z,95019.56
2022-09-30T03:29:31.111Z,95009.50
2022-09-30T03:32:06.250Z,95011.69
2022-09-30T03:34:40.398Z,95015.72
2022-09-30T03:37:09.823Z,95021.00
2022-09-30T03:39:45.417Z,95018.13
2022-09-30T03:42:11.897Z,95013.38
2022-09-30T03:44:38.376Z,95024.56
2022-09-30T03:47:08.648Z,95018.22
2022-09-30T03:49:40.253Z,95022.50
2022-09-30T03:52:07.831Z,95021.44
2022-09-30T03:54:38.304Z,95022.03
2022-09-30T03:57:05.578Z,95018.31
2022-09-30T03:59:32.080Z,95018.31
2022-09-30T04:01:58.533Z,95013.00
2022-09-30T04:04:24.999Z,95018.31
2022-09-30T04:06:51.457Z,95011.75
2022-09-30T04:09:18.001Z,95020.50
2022-09-30T04:11:44.541Z,95018.66
2022-09-30T04:14:11.013Z,95023.13
2022-09-30T04:16:37.526Z,95024.78
2022-09-30T04:19:04.077Z,95028.44
2022-09-30T04:21:30.997Z,95030.06
2022-09-30T04:23:57.447Z,95033.53
2022-09-30T04:26:23.898Z,95033.31
2022-09-30T04:28:51.562Z,95034.09
2022-09-30T04:31:21.255Z,95034.91
2022-09-30T04:33:47.794Z,95039.41
2022-09-30T04:36:14.267Z,95046.56
2022-09-30T04:38:40.732Z,95043.91
2022-09-30T04:41:07.567Z,95039.63
2022-09-30T04:43:34.555Z,95047.59
2022-09-30T04:46:01.460Z,95047.59
2022-09-30T04:48:31.442Z,95048.41
2022-09-30T04:50:59.760Z,95050.00
2022-09-30T04:53:26.383Z,95042.88
2022-09-30T04:55:58.472Z,95044.50
2022-09-30T04:58:24.892Z,95041.84
2022-09-30T05:00:51.377Z,95042.38
2022-09-30T05:03:19.256Z,95047.44
2022-09-30T05:05:46.059Z,95044.59
2022-09-30T05:08:12.470Z,95049.91
2022-09-30T05:10:40.442Z,95044.59
2022-09-30T05:13:07.018Z,95049.91
2022-09-30T05:15:34.962Z,95045.38
2022-09-30T05:18:01.935Z,95039.81
2022-09-30T05:20:28.349Z,95039.63
2022-09-30T05:22:56.138Z,95036.72
2022-09-30T05:25:23.586Z,95054.25
2022-09-30T05:27:50.582Z,95054.25
2022-09-30T05:30:17.306Z,95050.53
2022-09-30T05:32:44.232Z,95052.41
2022-09-30T05:35:12.113Z,95050.44
2022-09-30T05:37:39.023Z,95058.41
2022-09-30T05:40:06.066Z,95071.56
2022-09-30T05:42:36.035Z,95073.88
2022-09-30T05:45:06.753Z,95070.44
2022-09-30T05:47:33.555Z,95070.09
2022-09-30T05:50:00.032Z,95075.66
2022-09-30T05:52:26.526Z,95078.31
2022-09-30T05:54:53.005Z,95080.47
2022-09-30T05:57:19.377Z,95086.38
2022-09-30T05:59:45.818Z,95080.59
2022-09-30T06:02:12.389Z,95085.16
2022-09-30T06:04:38.866Z,95092.34
2022-09-30T06:07:10.385Z,95098.00
2022-09-30T06:09:37.195Z,95093.00
2022-09-30T06:12:03.715Z,95089.41
2022-09-30T06:14:30.404Z,95087.91
2022-09-30T06:16:56.832Z,95101.47
2022-09-30T06:19:23.297Z,95098.72
2022-09-30T06:21:49.768Z,95099.25
2022-09-30T06:24:16.216Z,95087.94
2022-09-30T06:26:43.281Z,95093.59
2022-09-30T06:29:09.768Z,95093.72
2022-09-30T06:31:36.311Z,95101.78
2022-09-30T06:34:02.945Z,95094.91
2022-09-30T06:36:29.443Z,95101.38
2022-09-30T06:38:55.846Z,95102.53
2022-09-30T06:41:25.810Z,95102.03
2022-09-30T06:43:58.146Z,95107.94
2022-09-30T06:46:30.920Z,95103.19
2022-09-30T06:49:09.194Z,95109.63
2022-09-30T06:51:38.873Z,95111.78
2022-09-30T06:54:05.266Z,95106.03
2022-09-30T06:56:32.118Z,95112.44
2022-09-30T06:58:58.573Z,95115.69
2022-09-30T07:01:25.023Z,95112.53
2022-09-30T07:03:58.033Z,95116.34
2022-09-30T07:06:26.426Z,95116.09
2022-09-30T07:08:54.237Z,95128.56
2022-09-30T07:11:20.921Z,95121.72
2022-09-30T07:13:49.205Z,95129.22
2022-09-30T07:16:18.046Z,95129.78
2022-09-30T07:18:45.719Z,95130.34
2022-09-30T07:21:13.767Z,95133.00
2022-09-30T07:23:49.274Z,95132.69
2022-09-30T07:26:16.533Z,95127.94
2022-09-30T07:28:43.670Z,95122.94
2022-09-30T07:31:32.077Z,95128.34
2022-09-30T07:33:58.488Z,95119.63
2022-09-30T07:36:32.211Z,95119.97
2022-09-30T07:38:59.439Z,95121.56
2022-09-30T07:41:28.948Z,95126.34
2022-09-30T07:43:56.613Z,95121.03
2022-09-30T07:46:25.327Z,95117.31
2022-09-30T07:48:54.547Z,95116.25
2022-09-30T07:51:23.278Z,95116.25
2022-09-30T07:53:51.194Z,95121.66
2022-09-30T07:56:18.231Z,95127.03
2022-09-30T07:58:44.890Z,95125.53
2022-09-30T08:01:11.524Z,95124.00
2022-09-30T08:03:39.803Z,95133.81
2022-09-30T08:06:10.818Z,95135.66
2022-09-30T08:08:37.234Z,95129.31
2022-09-30T08:11:04.303Z,95133.56
2022-09-30T08:13:30.673Z,95128.81
2022-09-30T08:15:57.067Z,95124.06
2022-09-30T08:18:23.584Z,95109.16
2022-09-30T08:20:50.136Z,95108.38
2022-09-30T08:23:17.450Z,95104.41
2022-09-30T08:25:43.985Z,95105.53
2022-09-30T08:28:10.418Z,95117.06
2022-09-30T08:30:37.629Z,95135.50
2022-09-30T08:33:04.247Z,95134.44
2022-09-30T08:35:31.124Z,95131.94
2022-09-30T08:37:57.492Z,95133.00
2022-09-30T08:40:23.889Z,95136.78
2022-09-30T08:43:09.234Z,95137.09
2022-09-30T08:45:44.692Z,95145.72
2022-09-30T08:48:29.243Z,95140.41
2022-09-30T08:51:09.360Z,95139.59
2022-09-30T08:53:38.229Z,95132.72
2022-09-30T08:56:05.965Z,95135.31
2022-09-30T08:58:38.789Z,95142.50
2022-09-30T09:01:23.617Z,95130.50
2022-09-30T09:03:50.068Z,95135.06
2022-09-30T09:06:39.437Z,95131.66
2022-09-30T09:09:32.618Z,95137.31
2022-09-30T09:12:03.239Z,95151.28
2022-09-30T09:14:29.633Z,95147.66
2022-09-30T09:17:02.927Z,95159.41
2022-09-30T09:19:37.116Z,95148.75
2022-09-30T09:22:03.731Z,95157.00
2022-09-30T09:24:34.244Z,95145.00
2022-09-30T09:27:01.326Z,95147.56
2022-09-30T09:29:27.711Z,95142.25
2022-09-30T09:31:54.838Z,95144.91
2022-09-30T09:34:23.801Z,95148.94
2022-09-30T09:37:11.568Z,95143.94
2022-09-30T09:39:40.755Z,95139.88
2022-09-30T09:42:07.498Z,95150.47
2022-09-30T09:44:36.903Z,95142.72
2022-09-30T09:47:14.140Z,95146.44
2022-09-30T09:49:43.559Z,95142.03
2022-09-30T09:52:12.813Z,95145.84
2022-09-30T09:54:47.188Z,95137.69
2022-09-30T09:57:18.111Z,95131.63
2022-09-30T10:00:20.955Z,95136.72
2022-09-30T10:03:01.347Z,95128.47
2022-09-30T10:05:29.963Z,95134.94
2022-09-30T10:08:16.741Z,95134.19
2022-09-30T10:10:53.661Z,95128.34
2022-09-30T10:13:24.003Z,95131.06
2022-09-30T10:15:52.340Z,95125.81
2022-09-30T10:18:21.370Z,95110.63
2022-09-30T10:20:52.640Z,95112.50
2022-09-30T10:23:19.040Z,95113.59
2022-09-30T10:25:55.652Z,95109.41
2022-09-30T10:28:27.006Z,95113.16
2022-09-30T10:30:55.696Z,95117.97
2022-09-30T10:33:25.704Z,95123.88
2022-09-30T10:35:54.854Z,95121.25
2022-09-30T10:38:22.182Z,95109.88
2022-09-30T10:40:50.448Z,95110.41
2022-09-30T10:43:30.195Z,95116.25
2022-09-30T10:46:24.047Z,95127.16
2022-09-30T10:48:49.200Z,95126.28
2022-09-30T10:51:23.653Z,95131.31
2022-09-30T10:53:50.459Z,95134.97
2022-09-30T10:56:31.932Z,95128.06
2022-09-30T10:58:59.320Z,95121.66
2022-09-30T11:01:28.764Z,95123.25
2022-09-30T11:04:30.974Z,95125.97
2022-09-30T11:07:08.592Z,95120.16
2022-09-30T11:09:37.734Z,95123.88
2022-09-30T11:12:09.008Z,95120.16
2022-09-30T11:14:48.545Z,95128.16
2022-09-30T11:17:22.784Z,95123.38
2022-09-30T11:19:59.042Z,95126.59
2022-09-30T11:22:37.583Z,95117.63
2022-09-30T11:25:08.732Z,95122.50
2022-09-30T11:27:44.873Z,95127.31
2022-09-30T11:30:23.915Z,95124.09
2022-09-30T11:33:13.541Z,95128.44
2022-09-30T11:36:12.053Z,95121.53
2022-09-30T11:38:44.362Z,95128.00
2022-09-30T11:41:20.246Z,95133.34
2022-09-30T11:44:06.928Z,95122.22
2022-09-30T11:46:45.174Z,95129.22
2022-09-30T11:49:11.568Z,95135.91
2022-09-30T11:51:44.107Z,95142.13
2022-09-30T11:54:13.568Z,95141.06
2022-09-30T11:56:43.102Z,95145.91
2022-09-30T11:59:16.913Z,95144.56
2022-09-30T12:01:45.637Z,95136.31
2022-09-30T12:04:12.015Z,95140.59
2022-09-30T12:06:48.960Z,95143.84
2022-09-30T12:09:22.282Z,95150.75
2022-09-30T12:12:03.310Z,95150.75
2022-09-30T12:14:35.441Z,95149.69
2022-09-30T12:17:05.799Z,95152.91
2022-09-30T12:19:43.871Z,95156.13
2022-09-30T12:22:13.132Z,95161.47
2022-09-30T12:24:40.725Z,95158.81
2022-09-30T12:27:27.533Z,95160.41
2022-09-30T12:30:16.234Z,95159.91
2022-09-30T12:32:51.460Z,95162.88
2022-09-30T12:35:20.874Z,95160.75
2022-09-30T12:37:53.515Z,95160.25
2022-09-30T12:40:22.894Z,95161.03
2022-09-30T12:42:58.628Z,95159.19
2022-09-30T12:45:43.176Z,95176.53
2022-09-30T12:48:17.154Z,95175.44
2022-09-30T12:50:49.416Z,95176.00
2022-09-30T12:53:22.491Z,95179.97
2022-09-30T12:55:49.158Z,95186.38
2022-09-30T12:58:29.811Z,95186.69
2022-09-30T13:01:02.912Z,95195.75
2022-09-30T13:03:43.335Z,95194.16
2022-09-30T13:06:09.869Z,95201.34
2022-09-30T13:08:42.856Z,95201.63
2022-09-30T13:11:31.258Z,95204.78
2022-09-30T13:14:13.718Z,95214.66
2022-09-30T13:17:01.246Z,95214.94
2022-09-30T13:19:47.577Z,95218.69
2022-09-30T13:22:32.409Z,95215.78
2022-09-30T13:25:05.064Z,95221.91
2022-09-30T13:27:39.140Z,95223.00
2022-09-30T13:30:15.657Z,95222.19
2022-09-30T13:33:04.461Z,95220.63
2022-09-30T13:35:40.003Z,95219.81
2022-09-30T13:38:29.358Z,95229.75
2022-09-30T13:41:03.668Z,95222.81
2022-09-30T13:44:05.464Z,95222.34
2022-09-30T13:46:52.611Z,95222.09
2022-09-30T13:49:19.039Z,95228.75
2022-09-30T13:51:45.873Z,95233.06
2022-09-30T13:54:18.230Z,95243.22
2022-09-30T13:56:44.723Z,95248.03
2022-09-30T13:59:13.378Z,95255.28
2022-09-30T14:01:54.106Z,95259.56
2022-09-30T14:04:35.760Z,95258.50
2022-09-30T14:07:02.107Z,95261.72
2022-09-30T14:09:29.738Z,95261.22
2022-09-30T14:12:16.427Z,95258.84
2022-09-30T14:15:08.299Z,95261.00
2022-09-30T14:17:37.770Z,95276.53
2022-09-30T14:20:23.016Z,95273.84
2022-09-30T14:22:49.571Z,95283.47
2022-09-30T14:25:17.708Z,95283.75
2022-09-30T14:27:59.278Z,95278.97
2022-09-30T14:30:27.176Z,95272.00
2022-09-30T14:32:59.167Z,95282.69
2022-09-30T14:35:32.819Z,95298.22
2022-09-30T14:38:06.966Z,95297.66
2022-09-30T14:40:34.385Z,95288.03
2022-09-30T14:43:05.711Z,95292.31
2022-09-30T14:45:41.559Z,95301.16
2022-09-30T14:48:10.171Z,95301.41
2022-09-30T14:50:40.115Z,95307.84
2022-09-30T14:53:23.752Z,95306.75
2022-09-30T14:55:50.267Z,95307.31
2022-09-30T14:58:18.239Z,95305.72
2022-09-30T15:00:47.126Z,95306.53
2022-09-30T15:03:13.957Z,95319.59
2022-09-30T15:05:41.226Z,95320.38
2022-09-30T15:08:18.133Z,95322.25
2022-09-30T15:10:48.473Z,95323.81
2022-09-30T15:13:15.374Z,95338.75
2022-09-30T15:15:41.789Z,95337.69
2022-09-30T15:18:26.801Z,95336.06
2022-09-30T15:20:55.195Z,95338.19
2022-09-30T15:23:25.390Z,95353.66
2022-09-30T15:25:52.838Z,95350.44
2022-09-30T15:28:19.270Z,95354.16
2022-09-30T15:30:45.760Z,95349.06
2022-09-30T15:33:15.427Z,95358.13
2022-09-30T15:35:41.809Z,95351.41
2022-09-30T15:38:09.951Z,95361.56
2022-09-30T15:40:56.994Z,95366.84
2022-09-30T15:43:32.934Z,95379.91
2022-09-30T15:46:15.447Z,95384.94
2022-09-30T15:48:44.760Z,95381.97
2022-09-30T15:51:30.114Z,95377.91
2022-09-30T15:54:00.388Z,95382.16
2022-09-30T15:56:31.423Z,95359.69
2022-09-30T15:58:59.220Z,95377.25
2022-09-30T16:01:45.893Z,95378.81
2022-09-30T16:04:24.400Z,95387.78
2022-09-30T16:06:51.754Z,95386.13
2022-09-30T16:09:18.563Z,95384.44
2022-09-30T16:12:00.994Z,95391.59
2022-09-30T16:14:28.783Z,95394.69
2022-09-30T16:16:56.806Z,95401.00
2022-09-30T16:19:26.723Z,95401.41
2022-09-30T16:21:54.774Z,95410.38
2022-09-30T16:24:21.165Z,95414.59
2022-09-30T16:26:47.773Z,95421.22
2022-09-30T16:29:17.585Z,95433.66
2022-09-30T16:31:45.693Z,95442.91
2022-09-30T16:34:20.274Z,95438.53
2022-09-30T16:36:46.676Z,95441.84
2022-09-30T16:39:14.753Z,95446.28
2022-09-30T16:41:41.152Z,95439.84
2022-09-30T16:44:07.537Z,95440.78
2022-09-30T16:46:34.237Z,95448.94
2022-09-30T16:49:11.453Z,95461.13
2022-09-30T16:51:37.813Z,95468.78
2022-09-30T16:54:04.740Z,95471.09
2022-09-30T16:56:31.543Z,95467.09
2022-09-30T16:58:58.191Z,95472.91
2022-09-30T17:01:26.072Z,95476.59
2022-09-30T17:03:52.940Z,95476.59
2022-09-30T17:06:20.341Z,95481.91
2022-09-30T17:08:49.507Z,95487.81
2022-09-30T17:11:16.526Z,95481.91
2022-09-30T17:13:43.991Z,95491.28
2022-09-30T17:16:10.591Z,95497.97
2022-09-30T17:18:37.048Z,95500.19
2022-09-30T17:21:03.522Z,95502.13
2022-09-30T17:23:29.933Z,95507.22
2022-09-30T17:25:56.391Z,95507.78
2022-09-30T17:28:22.842Z,95509.97
2022-09-30T17:30:50.449Z,95513.19
2022-09-30T17:33:18.615Z,95513.69
2022-09-30T17:35:45.013Z,95513.34
2022-09-30T17:38:12.826Z,95510.94
2022-09-30T17:40:58.328Z,95510.69
2022-09-30T17:43:24.697Z,95511.03
2022-09-30T17:45:52.188Z,95506.25
2022-09-30T17:48:18.986Z,95515.88
2022-09-30T17:50:46.788Z,95515.63
2022-09-30T17:53:14.229Z,95518.53
2022-09-30T17:55:41.013Z,95522.56
2022-09-30T17:58:08.681Z,95530.53
2022-09-30T18:00:35.214Z,95526.84
2022-09-30T18:03:02.892Z,95525.00
2022-09-30T18:05:30.090Z,95527.66
2022-09-30T18:07:57.243Z,95534.34
2022-09-30T18:10:23.716Z,95543.16
2022-09-30T18:12:51.775Z,95551.72
2022-09-30T18:15:18.669Z,95546.94
2022-09-30T18:17:45.066Z,95552.84
2022-09-30T18:20:11.843Z,95544.28
2022-09-30T18:22:38.560Z,95542.69
2022-09-30T18:25:20.821Z,95542.69
2022-09-30T18:27:47.858Z,95547.19
2022-09-30T18:30:14.342Z,95541.06
2022-09-30T18:32:42.130Z,95542.69
2022-09-30T18:35:12.308Z,95544.19
2022-09-30T18:37:39.225Z,95546.53
2022-09-30T18:40:05.955Z,95538.78
2022-09-30T18:42:32.432Z,95547.81
2022-09-30T18:44:58.849Z,95550.41
2022-09-30T18:47:25.462Z,95551.13
2022-09-30T18:49:52.253Z,95553.44
2022-09-30T18:52:18.693Z,95559.22
2022-09-30T18:54:45.125Z,95562.84
2022-09-30T18:57:11.652Z,95568.66
2022-09-30T18:59:38.066Z,95563.78
2022-09-30T19:02:04.644Z,95553.03
2022-09-30T19:04:31.077Z,95561.03
2022-09-30T19:06:57.533Z,95565.22
2022-09-30T19:09:26.616Z,95561.41
2022-09-30T19:11:53.152Z,95560.59
2022-09-30T19:14:19.786Z,95568.38
2022-09-30T19:16:46.339Z,95566.72
2022-09-30T19:19:12.984Z,95570.94
2022-09-30T19:21:39.982Z,95571.38
2022-09-30T19:24:07.343Z,95566.78
2022-09-30T19:26:34.766Z,95567.81
2022-09-30T19:29:01.179Z,95569.09
2022-09-30T19:31:28.417Z,95564.00
2022-09-30T19:33:57.131Z,95572.81
2022-09-30T19:36:24.795Z,95567.91
2022-09-30T19:38:55.528Z,95559.25
2022-09-30T19:41:26.508Z,95561.81
2022-09-30T19:43:52.941Z,95564.13
2022-09-30T19:46:21.605Z,95579.28
2022-09-30T19:48:48.036Z,95575.47
2022-09-30T19:51:16.917Z,95576.50
2022-09-30T19:53:52.016Z,95567.72
2022-09-30T19:56:26.058Z,95572.44
2022-09-30T19:58:53.521Z,95575.59
2022-09-30T20:01:28.231Z,95581.13
2022-09-30T20:03:55.424Z,95571.31
2022-09-30T20:06:24.984Z,95572.81
2022-09-30T20:08:59.083Z,95584.50
2022-09-30T20:11:26.405Z,95584.16
2022-09-30T20:14:13.720Z,95591.09
2022-09-30T20:16:41.061Z,95589.47
2022-09-30T20:19:07.838Z,95589.91
2022-09-30T20:21:34.743Z,95587.72
2022-09-30T20:24:02.471Z,95588.31
2022-09-30T20:26:29.090Z,95587.72
2022-09-30T20:29:00.187Z,95588.31
2022-09-30T20:31:27.385Z,95590.97
2022-09-30T20:33:54.937Z,95578.97
2022-09-30T20:36:22.126Z,95580.56
2022-09-30T20:38:51.889Z,95579.75
2022-09-30T20:41:18.332Z,95582.41
2022-09-30T20:43:48.403Z,95584.28
2022-09-30T20:46:14.944Z,95569.13
2022-09-30T20:48:41.348Z,95568.31
2022-09-30T20:51:12.305Z,95572.81
2022-09-30T20:53:39.791Z,95561.59
2022-09-30T20:56:10.063Z,95567.75
2022-09-30T20:58:37.371Z,95565.09
2022-09-30T21:01:08.448Z,95558.94
2022-09-30T21:03:38.902Z,95560.00
2022-09-30T21:06:06.924Z,95567.97
2022-09-30T21:08:40.425Z,95566.34
2022-09-30T21:11:07.441Z,95566.56
2022-09-30T21:13:35.314Z,95564.97
2022-09-30T21:16:04.114Z,95565.41
2022-09-30T21:18:31.235Z,95562.75
2022-09-30T21:20:58.881Z,95574.69
2022-09-30T21:23:25.948Z,95576.75
2022-09-30T21:26:02.467Z,95580.69
2022-09-30T21:28:29.117Z,95571.91
2022-09-30T21:30:56.333Z,95576.97
2022-09-30T21:33:25.785Z,95565.53
2022-09-30T21:36:02.446Z,95567.16
2022-09-30T21:38:29.588Z,95568.78
2022-09-30T21:41:00.542Z,95576.75
2022-09-30T21:43:31.097Z,95573.28
2022-09-30T21:46:01.497Z,95571.44
2022-09-30T21:48:28.475Z,95574.44
2022-09-30T21:50:56.320Z,95583.66
2022-09-30T21:53:26.303Z,95574.44
2022-09-30T21:55:56.370Z,95575.81
2022-09-30T21:58:25.258Z,95567.06
2022-09-30T22:01:02.437Z,95567.06
2022-09-30T22:03:37.268Z,95563.34
2022-09-30T22:06:06.774Z,95569.47
2022-09-30T22:08:35.447Z,95569.72
2022-09-30T22:11:02.780Z,95569.13
2022-09-30T22:13:29.219Z,95562.16
2022-09-30T22:16:02.268Z,95571.19
2022-09-30T22:18:29.173Z,95572.50
2022-09-30T22:20:55.570Z,95570.03
2022-09-30T22:23:21.989Z,95577.44
2022-09-30T22:25:48.351Z,95585.97
2022-09-30T22:28:14.842Z,95580.91
2022-09-30T22:30:41.400Z,95585.97
2022-09-30T22:33:26.426Z,95576.41
2022-09-30T22:36:13.384Z,95565.19
2022-09-30T22:38:39.777Z,95575.81
2022-09-30T22:41:06.134Z,95581.59
2022-09-30T22:43:32.605Z,95590.63
2022-09-30T22:46:03.124Z,95585.31
2022-09-30T22:48:30.420Z,95588.53
2022-09-30T22:50:57.556Z,95590.63
2022-09-30T22:53:24.700Z,95589.81
2022-09-30T22:55:51.678Z,95592.69
2022-09-30T22:58:18.510Z,95592.00
2022-09-30T23:00:52.560Z,95592.00
2022-09-30T23:03:18.979Z,95591.75
2022-09-30T23:05:45.426Z,95609.53
2022-09-30T23:08:11.861Z,95596.94
2022-09-30T23:10:39.971Z,95603.09
2022-09-30T23:13:08.980Z,95607.22
2022-09-30T23:15:35.430Z,95604.34
2022-09-30T23:18:01.848Z,95593.47
2022-09-30T23:20:28.239Z,95600.66
2022-09-30T23:22:54.599Z,95594.28
2022-09-30T23:25:21.021Z,95595.34
2022-09-30T23:27:48.145Z,95603.09
2022-09-30T23:30:14.811Z,95592.00
2022-09-30T23:32:41.174Z,95592.00
2022-09-30T23:35:07.799Z,95588.50
2022-09-30T23:37:34.210Z,95580.78
2022-09-30T23:40:00.716Z,95577.28
2022-09-30T23:42:29.140Z,95575.09
2022-09-30T23:44:55.489Z,95582.06
2022-09-30T23:47:21.876Z,95576.94
2022-09-30T23:49:48.457Z,95570.84
2022-09-30T23:52:15.009Z,95584.91
2022-09-30T23:54:41.906Z,95576.94
2022-09-30T23:57:08.587Z,95569.56
2022-09-30T23:59:34.954Z,95562.41
